This is the latest recevied weather packets stored in our database for station/object SR5NLK-1. If no packets are shown the sender has not sent any weather packets the latest 10 day(s).
| Time | Temp. | Humidity | Pressure | Rain* | Wind** | Luminosity | Snow |
|---|---|---|---|---|---|---|---|
| 1787748302 | 25.56° C | 42% | 1094.1 hPa | 0 mm | - | - | - |
| 1787748002 | 25° C | 43% | 959.4 hPa | 0 mm | - | - | - |
| 1787747701 | 23.89° C | 43% | 1026.1 hPa | 0 mm | - | - | - |
| 1787747401 | 23.89° C | 44% | 1096.3 hPa | 0 mm | - | - | - |
| 1787747154 | 23.89° C | 44% | 1058.6 hPa | 0 mm | - | - | - |
| 1787747102 | 23.89° C | 44% | 1058.6 hPa | 0 mm | - | - | - |
| 1787746801 | 24.44° C | 43% | 1093.4 hPa | 0 mm | - | - | - |
| 1787746561 | 25° C | 43% | 1090.5 hPa | 0 mm | - | - | - |
| 1787746502 | 25° C | 43% | 1065.9 hPa | 0 mm | - | - | - |
| 1787746402 | 25.56° C | 48% | 1090.9 hPa | 0 mm | - | - | - |
| 1787746235 | 25.56° C | 43% | 1073.8 hPa | 0 mm | - | - | - |
| 1787746202 | 25.56° C | 43% | 1073.8 hPa | 0 mm | - | - | - |
| 1787745601 | 23.89° C | 45% | 1074.3 hPa | 0 mm | - | - | - |
| 1787745549 | 24.44° C | 50% | 1085 hPa | 0 mm | - | - | - |
| 1787745302 | 23.89° C | 45% | 1045.6 hPa | 0 mm | - | - | - |
| 1787745229 | 23.89° C | 51% | 1080.4 hPa | 0 mm | - | - | - |
| 1787745002 | 24.44° C | 45% | 1078.4 hPa | 0 mm | - | - | - |
| 1787744702 | 24.44° C | 45% | 1046.9 hPa | 0 mm | - | - | - |
| 1787744581 | 24.44° C | 45% | 1057.2 hPa | 0 mm | - | - | - |
| 1787744451 | 24.44° C | 45% | 1079.3 hPa | 0 mm | - | - | - |
| 1787744435 | 22.78° C | 54% | 1015.4 hPa | 0 mm | - | - | - |
| 1787744402 | 24.44° C | 45% | 1079.3 hPa | 0 mm | - | - | - |
| 1787744102 | 24.44° C | 46% | 990 hPa | 0 mm | - | - | - |
| 1787744045 | 22.22° C | 55% | 1062.7 hPa | 0 mm | - | - | - |
| 1787743802 | 24.44° C | 46% | 1083.6 hPa | 0 mm | - | - | - |
* Rain latest hour (hover to see other rain measurements)
** Current wind speed in m/s (hover to see current wind gust speed)